createdAt,value
2017-11-29T00:00:50.477Z,22.14
2017-11-29T00:01:50.478Z,22.14
2017-11-29T00:02:50.480Z,22.20
2017-11-29T00:03:50.484Z,22.18
2017-11-29T00:04:50.486Z,22.09
2017-11-29T00:05:50.489Z,22.09
2017-11-29T00:06:50.492Z,22.09
2017-11-29T00:07:50.496Z,22.14
2017-11-29T00:08:50.498Z,22.12
2017-11-29T00:09:50.499Z,22.15
2017-11-29T00:10:50.503Z,22.17
2017-11-29T00:11:50.506Z,22.18
2017-11-29T00:12:50.509Z,22.18
2017-11-29T00:13:50.510Z,22.09
2017-11-29T00:14:50.513Z,22.15
2017-11-29T00:15:50.516Z,22.10
2017-11-29T00:16:50.519Z,22.17
2017-11-29T00:17:50.523Z,22.06
2017-11-29T00:18:50.527Z,22.17
2017-11-29T00:19:50.526Z,22.05
2017-11-29T00:20:50.531Z,22.15
2017-11-29T00:21:50.530Z,22.05
2017-11-29T00:22:50.535Z,22.15
2017-11-29T00:23:50.538Z,22.14
2017-11-29T00:24:50.544Z,22.10
2017-11-29T00:25:50.542Z,22.14
2017-11-29T00:26:50.545Z,22.06
2017-11-29T00:27:50.547Z,22.07
2017-11-29T00:28:50.550Z,22.05
2017-11-29T00:29:50.552Z,22.14
2017-11-29T00:30:50.556Z,22.14
2017-11-29T00:31:50.562Z,22.05
2017-11-29T00:32:50.560Z,22.10
2017-11-29T00:33:50.562Z,22.07
2017-11-29T00:34:50.565Z,22.09
2017-11-29T00:35:50.569Z,22.02
2017-11-29T00:36:50.571Z,22.12
2017-11-29T00:37:50.572Z,22.15
2017-11-29T00:38:50.575Z,22.18
2017-11-29T00:39:50.580Z,22.05
2017-11-29T00:40:50.584Z,22.05
2017-11-29T00:41:50.584Z,22.12
2017-11-29T00:42:50.587Z,22.03
2017-11-29T00:43:50.590Z,22.05
2017-11-29T00:44:50.594Z,22.09
2017-11-29T00:45:50.594Z,22.09
2017-11-29T00:46:50.597Z,22.05
2017-11-29T00:47:50.600Z,22.03
2017-11-29T00:48:50.602Z,22.12
2017-11-29T00:49:50.605Z,22.07
2017-11-29T00:50:50.608Z,22.05
2017-11-29T00:51:50.611Z,22.03
2017-11-29T00:52:50.621Z,22.00
2017-11-29T00:53:50.615Z,22.07
2017-11-29T00:54:50.623Z,22.06
2017-11-29T00:55:50.621Z,22.03
2017-11-29T00:56:50.623Z,22.05
2017-11-29T00:57:50.627Z,22.00
2017-11-29T00:58:50.628Z,22.07
2017-11-29T00:59:50.631Z,21.99
2017-11-29T01:00:50.634Z,22.09
2017-11-29T01:01:50.636Z,22.03
2017-11-29T01:02:50.639Z,22.03
2017-11-29T01:03:50.643Z,21.99
2017-11-29T01:04:50.644Z,22.00
2017-11-29T01:05:50.646Z,22.03
2017-11-29T01:06:50.649Z,22.07
2017-11-29T01:07:50.651Z,22.09
2017-11-29T01:08:50.655Z,22.06
2017-11-29T01:09:50.657Z,22.02
2017-11-29T01:10:50.659Z,22.02
2017-11-29T01:11:50.663Z,22.05
2017-11-29T01:12:50.666Z,22.00
2017-11-29T01:13:50.668Z,22.03
2017-11-29T01:14:50.669Z,22.07
2017-11-29T01:15:50.672Z,22.00
2017-11-29T01:16:50.684Z,22.02
2017-11-29T01:17:50.677Z,22.06
2017-11-29T01:18:50.681Z,21.96
2017-11-29T01:19:50.683Z,22.03
2017-11-29T01:20:50.685Z,22.06
2017-11-29T01:21:50.687Z,22.03
2017-11-29T01:22:50.690Z,22.06
2017-11-29T01:23:50.692Z,22.02
2017-11-29T01:24:50.696Z,22.05
2017-11-29T01:25:50.697Z,22.07
2017-11-29T01:26:50.698Z,22.06
2017-11-29T01:27:50.703Z,22.05
2017-11-29T01:28:50.706Z,22.06
2017-11-29T01:29:50.708Z,22.00
2017-11-29T01:30:50.711Z,22.03
2017-11-29T01:31:50.721Z,22.07
2017-11-29T01:32:50.716Z,22.02
2017-11-29T01:33:50.717Z,22.06
2017-11-29T01:34:50.721Z,22.06
2017-11-29T01:35:50.723Z,22.05
2017-11-29T01:36:50.728Z,21.98
2017-11-29T01:37:50.728Z,22.06
2017-11-29T01:38:50.730Z,22.02
2017-11-29T01:39:50.741Z,22.02
2017-11-29T01:40:50.736Z,22.07
2017-11-29T01:41:50.737Z,22.07
2017-11-29T01:42:50.744Z,22.03
2017-11-29T01:43:50.744Z,22.03
2017-11-29T01:44:50.747Z,22.05
2017-11-29T01:45:50.749Z,22.09
2017-11-29T01:46:50.752Z,22.05
2017-11-29T01:47:50.754Z,22.02
2017-11-29T01:48:50.757Z,22.03
2017-11-29T01:49:50.759Z,22.05
2017-11-29T01:50:50.763Z,22.02
2017-11-29T01:51:50.765Z,21.92
2017-11-29T01:52:50.768Z,22.03
2017-11-29T01:53:50.772Z,22.03
2017-11-29T01:54:50.773Z,22.05
2017-11-29T01:55:50.783Z,22.06
2017-11-29T01:56:50.778Z,22.03
2017-11-29T01:57:50.780Z,21.96
2017-11-29T01:58:50.783Z,21.94
2017-11-29T01:59:50.786Z,22.00
2017-11-29T02:00:50.789Z,21.99
2017-11-29T02:01:50.790Z,21.99
2017-11-29T02:02:50.792Z,22.00
2017-11-29T02:03:50.802Z,21.94
2017-11-29T02:04:50.798Z,22.03
2017-11-29T02:05:50.807Z,21.98
2017-11-29T02:06:50.803Z,21.96
2017-11-29T02:07:50.806Z,21.86
2017-11-29T02:08:50.810Z,21.92
2017-11-29T02:09:50.808Z,21.94
2017-11-29T02:10:50.813Z,21.90
2017-11-29T02:11:50.818Z,21.94
2017-11-29T02:12:50.819Z,21.91
2017-11-29T02:13:50.822Z,22.00
2017-11-29T02:14:50.824Z,21.88
2017-11-29T02:15:50.827Z,21.88
2017-11-29T02:16:50.829Z,21.98
2017-11-29T02:17:50.831Z,21.90
2017-11-29T02:18:50.834Z,21.91
2017-11-29T02:19:50.838Z,21.92
2017-11-29T02:20:50.839Z,21.90
2017-11-29T02:21:50.847Z,21.98
2017-11-29T02:22:50.845Z,21.91
2017-11-29T02:23:50.845Z,21.90
2017-11-29T02:24:50.856Z,21.98
2017-11-29T02:25:50.851Z,21.90
2017-11-29T02:26:50.853Z,21.96
2017-11-29T02:27:50.856Z,21.88
2017-11-29T02:28:50.859Z,21.90
2017-11-29T02:29:50.864Z,21.96
2017-11-29T02:30:50.864Z,21.94
2017-11-29T02:31:50.875Z,21.90
2017-11-29T02:32:50.870Z,21.90
2017-11-29T02:33:50.873Z,21.92
2017-11-29T02:34:50.874Z,21.92
2017-11-29T02:35:50.877Z,21.90
2017-11-29T02:36:50.880Z,21.90
2017-11-29T02:37:50.881Z,21.94
2017-11-29T02:38:50.884Z,21.91
2017-11-29T02:39:50.887Z,21.99
2017-11-29T02:40:50.892Z,21.91
2017-11-29T02:41:50.891Z,21.86
2017-11-29T02:42:50.894Z,21.91
2017-11-29T02:43:50.897Z,21.94
2017-11-29T02:44:50.900Z,21.90
2017-11-29T02:45:50.907Z,21.90
2017-11-29T02:46:50.906Z,21.91
2017-11-29T02:47:50.907Z,21.88
2017-11-29T02:48:50.917Z,21.88
2017-11-29T02:49:50.911Z,21.90
2017-11-29T02:50:50.914Z,21.88
2017-11-29T02:51:50.917Z,21.83
2017-11-29T02:52:50.919Z,21.86
2017-11-29T02:53:50.928Z,21.92
2017-11-29T02:54:50.925Z,21.86
2017-11-29T02:55:50.927Z,21.91
2017-11-29T02:56:50.929Z,21.96
2017-11-29T02:57:50.932Z,21.90
2017-11-29T02:58:50.936Z,21.90
2017-11-29T02:59:50.937Z,21.91
2017-11-29T03:00:50.939Z,21.94
2017-11-29T03:01:50.941Z,21.90
2017-11-29T03:02:50.944Z,21.91
2017-11-29T03:03:50.947Z,21.94
2017-11-29T03:04:50.951Z,21.94
2017-11-29T03:05:50.954Z,21.94
2017-11-29T03:06:50.957Z,21.91
2017-11-29T03:07:50.956Z,21.90
2017-11-29T03:08:50.960Z,21.90
2017-11-29T03:09:50.960Z,21.88
2017-11-29T03:10:50.965Z,21.91
2017-11-29T03:11:50.968Z,21.84
2017-11-29T03:12:50.977Z,21.88
2017-11-29T03:13:50.979Z,21.94
2017-11-29T03:14:50.978Z,21.83
2017-11-29T03:15:50.979Z,21.88
2017-11-29T03:16:50.981Z,21.90
2017-11-29T03:17:50.982Z,21.92
2017-11-29T03:18:50.985Z,21.91
2017-11-29T03:19:50.994Z,21.88
2017-11-29T03:20:50.990Z,21.88
2017-11-29T03:21:50.992Z,21.91
2017-11-29T03:22:50.995Z,21.86
2017-11-29T03:23:50.998Z,21.83
2017-11-29T03:24:51.000Z,21.80
2017-11-29T03:25:51.001Z,21.82
2017-11-29T03:26:51.004Z,21.83
2017-11-29T03:27:51.008Z,21.80
2017-11-29T03:28:51.011Z,21.82
2017-11-29T03:29:51.011Z,21.88
2017-11-29T03:30:51.019Z,21.84
2017-11-29T03:31:51.016Z,21.88
2017-11-29T03:32:51.018Z,21.86
2017-11-29T03:33:51.020Z,21.86
2017-11-29T03:34:51.023Z,21.84
2017-11-29T03:35:51.027Z,21.84
2017-11-29T03:36:51.028Z,21.83
2017-11-29T03:37:51.031Z,21.91
2017-11-29T03:38:51.042Z,21.84
2017-11-29T03:39:51.036Z,21.84
2017-11-29T03:40:51.044Z,21.79
2017-11-29T03:41:51.045Z,21.82
2017-11-29T03:42:51.042Z,21.94
2017-11-29T03:43:51.046Z,21.90
2017-11-29T03:44:51.051Z,21.88
2017-11-29T03:45:51.051Z,21.86
2017-11-29T03:46:51.060Z,21.83
2017-11-29T03:47:51.062Z,21.82
2017-11-29T03:48:51.062Z,21.88
2017-11-29T03:49:51.066Z,21.82
2017-11-29T03:50:51.062Z,21.88
2017-11-29T03:51:51.066Z,21.80
2017-11-29T03:52:51.068Z,21.80
2017-11-29T03:53:51.070Z,21.82
2017-11-29T03:54:51.073Z,21.91
2017-11-29T03:55:51.074Z,21.88
2017-11-29T03:56:51.078Z,21.83
2017-11-29T03:57:51.079Z,21.77
2017-11-29T03:58:51.082Z,21.84
2017-11-29T03:59:51.086Z,21.77
2017-11-29T04:00:51.088Z,21.79
2017-11-29T04:01:51.091Z,21.80
2017-11-29T04:02:51.093Z,21.82
2017-11-29T04:03:51.094Z,21.83
2017-11-29T04:04:51.097Z,21.82
2017-11-29T04:05:51.099Z,21.91
2017-11-29T04:06:51.107Z,21.84
2017-11-29T04:07:51.105Z,21.88
2017-11-29T04:08:51.107Z,21.82
2017-11-29T04:09:51.108Z,21.79
2017-11-29T04:10:51.111Z,21.86
2017-11-29T04:11:51.113Z,21.86
2017-11-29T04:12:51.116Z,21.88
2017-11-29T04:13:51.119Z,21.90
2017-11-29T04:14:51.120Z,21.83
2017-11-29T04:15:51.141Z,21.92
2017-11-29T04:16:51.132Z,21.92
2017-11-29T04:17:51.133Z,21.92
2017-11-29T04:18:51.130Z,21.86
2017-11-29T04:19:51.135Z,21.90
2017-11-29T04:20:51.137Z,21.88
2017-11-29T04:21:51.136Z,21.88
2017-11-29T04:22:51.140Z,21.88
2017-11-29T04:23:51.143Z,21.88
2017-11-29T04:24:51.145Z,21.86
2017-11-29T04:25:51.148Z,21.91
2017-11-29T04:26:51.150Z,21.92
2017-11-29T04:27:51.153Z,21.90
2017-11-29T04:28:51.155Z,22.00
2017-11-29T04:29:51.158Z,21.83
2017-11-29T04:30:51.160Z,21.92
2017-11-29T04:31:51.164Z,21.90
2017-11-29T04:32:51.167Z,21.90
2017-11-29T04:33:51.168Z,21.98
2017-11-29T04:34:51.168Z,21.94
2017-11-29T04:35:51.171Z,21.91
2017-11-29T04:36:51.173Z,21.99
2017-11-29T04:37:51.182Z,21.98
2017-11-29T04:38:51.178Z,21.99
2017-11-29T04:39:51.181Z,22.05
2017-11-29T04:40:51.185Z,22.03
2017-11-29T04:41:51.185Z,21.96
2017-11-29T04:42:51.198Z,22.09
2017-11-29T04:43:51.195Z,22.05
2017-11-29T04:44:51.193Z,22.06
2017-11-29T04:45:51.195Z,21.99
2017-11-29T04:46:51.197Z,22.03
2017-11-29T04:47:51.200Z,22.00
2017-11-29T04:48:51.211Z,22.03
2017-11-29T04:49:51.204Z,22.00
2017-11-29T04:50:51.207Z,22.09
2017-11-29T04:51:51.210Z,22.07
2017-11-29T04:52:51.211Z,22.06
2017-11-29T04:53:51.214Z,22.07
2017-11-29T04:54:51.216Z,22.03
2017-11-29T04:55:51.218Z,22.07
2017-11-29T04:56:51.225Z,22.02
2017-11-29T04:57:51.224Z,22.14
2017-11-29T04:58:51.226Z,22.20
2017-11-29T04:59:51.229Z,22.06
2017-11-29T05:00:51.235Z,21.98
2017-11-29T05:01:51.234Z,22.09
2017-11-29T05:02:51.239Z,22.15
2017-11-29T05:03:51.238Z,22.15
2017-11-29T05:04:51.241Z,22.18
2017-11-29T05:05:51.243Z,22.18
2017-11-29T05:06:51.246Z,22.14
2017-11-29T05:07:51.251Z,22.05
2017-11-29T05:08:51.253Z,22.14
2017-11-29T05:09:51.253Z,22.07
2017-11-29T05:10:51.257Z,22.12
2017-11-29T05:11:51.258Z,22.15
2017-11-29T05:12:51.262Z,22.12
2017-11-29T05:13:51.265Z,22.15
2017-11-29T05:14:51.266Z,22.14
2017-11-29T05:15:51.269Z,22.21
2017-11-29T05:16:51.277Z,22.18
2017-11-29T05:17:51.274Z,22.15
2017-11-29T05:18:51.283Z,22.15
2017-11-29T05:19:51.280Z,22.10
2017-11-29T05:20:51.282Z,22.09
2017-11-29T05:21:51.287Z,22.15
2017-11-29T05:22:51.286Z,22.25
2017-11-29T05:23:51.289Z,22.22
2017-11-29T05:24:51.291Z,22.17
2017-11-29T05:25:51.296Z,22.20
2017-11-29T05:26:51.297Z,22.22
2017-11-29T05:27:51.298Z,22.15
2017-11-29T05:28:51.301Z,22.18
2017-11-29T05:29:51.303Z,22.21
2017-11-29T05:30:51.306Z,22.24
2017-11-29T05:31:51.309Z,22.21
2017-11-29T05:32:51.320Z,22.14
2017-11-29T05:33:51.312Z,22.25
2017-11-29T05:34:51.316Z,22.25
2017-11-29T05:35:51.321Z,22.21
2017-11-29T05:36:51.322Z,22.14
2017-11-29T05:37:51.322Z,22.20
2017-11-29T05:38:51.326Z,22.14
2017-11-29T05:39:51.334Z,22.24
2017-11-29T05:40:51.332Z,22.21
2017-11-29T05:41:51.336Z,22.17
2017-11-29T05:42:51.336Z,22.20
2017-11-29T05:43:51.340Z,22.20
2017-11-29T05:44:51.342Z,22.18
2017-11-29T05:45:51.347Z,22.21
2017-11-29T05:46:51.347Z,22.20
2017-11-29T05:47:51.351Z,22.22
2017-11-29T05:48:51.358Z,22.24
2017-11-29T05:49:51.359Z,22.18
2017-11-29T05:50:51.356Z,22.17
2017-11-29T05:51:51.361Z,22.20
2017-11-29T05:52:51.362Z,22.21
2017-11-29T05:53:51.372Z,22.27
2017-11-29T05:54:51.367Z,22.25
2017-11-29T05:55:51.369Z,22.24
2017-11-29T05:56:51.372Z,22.24
2017-11-29T05:57:51.374Z,22.31
2017-11-29T05:58:51.376Z,22.31
2017-11-29T05:59:51.380Z,22.22
2017-11-29T06:00:51.383Z,22.20
2017-11-29T06:01:51.382Z,22.30
2017-11-29T06:02:51.395Z,22.28
2017-11-29T06:03:51.389Z,22.25
2017-11-29T06:04:51.393Z,22.22
2017-11-29T06:05:51.395Z,22.27
2017-11-29T06:06:51.398Z,22.28
2017-11-29T06:07:51.400Z,22.30
2017-11-29T06:08:51.404Z,22.27
2017-11-29T06:09:51.405Z,22.25
2017-11-29T06:10:51.405Z,22.33
2017-11-29T06:11:51.410Z,22.21
2017-11-29T06:12:51.419Z,22.27
2017-11-29T06:13:51.415Z,22.27
2017-11-29T06:14:51.418Z,22.25
2017-11-29T06:15:51.421Z,22.28
2017-11-29T06:16:51.422Z,22.24
2017-11-29T06:17:51.424Z,22.30
2017-11-29T06:18:51.428Z,22.33
2017-11-29T06:19:51.431Z,22.25
2017-11-29T06:20:51.434Z,22.33
2017-11-29T06:21:51.434Z,22.25
2017-11-29T06:22:51.446Z,22.30
2017-11-29T06:23:51.441Z,22.24
2017-11-29T06:24:51.443Z,22.28
2017-11-29T06:25:51.449Z,22.21
2017-11-29T06:26:51.451Z,22.30
2017-11-29T06:27:51.451Z,22.28
2017-11-29T06:28:51.458Z,22.30
2017-11-29T06:29:51.461Z,22.25
2017-11-29T06:30:51.462Z,22.25
2017-11-29T06:31:51.461Z,22.36
2017-11-29T06:32:51.464Z,22.24
2017-11-29T06:33:51.466Z,22.28
2017-11-29T06:34:51.470Z,22.30
2017-11-29T06:35:51.472Z,22.28
2017-11-29T06:36:51.473Z,22.27
2017-11-29T06:37:51.475Z,22.30
2017-11-29T06:38:51.479Z,22.22
2017-11-29T06:39:51.483Z,22.25
2017-11-29T06:40:51.485Z,22.22
2017-11-29T06:41:51.486Z,22.30
2017-11-29T06:42:51.489Z,22.28
2017-11-29T06:43:51.493Z,22.31
2017-11-29T06:44:51.494Z,22.30
2017-11-29T06:45:51.497Z,22.35
2017-11-29T06:46:51.500Z,22.31
2017-11-29T06:47:51.505Z,22.31
2017-11-29T06:48:51.506Z,22.35
2017-11-29T06:49:51.511Z,22.33
2017-11-29T06:50:51.510Z,22.39
2017-11-29T06:51:51.512Z,22.36
2017-11-29T06:52:51.518Z,22.35
2017-11-29T06:53:51.521Z,22.31
2017-11-29T06:54:51.520Z,22.31
2017-11-29T06:55:51.556Z,22.35
2017-11-29T06:56:51.531Z,22.40
2017-11-29T06:57:51.530Z,22.31
2017-11-29T06:58:51.533Z,22.35
2017-11-29T06:59:51.532Z,22.33
2017-11-29T07:00:51.542Z,22.30
2017-11-29T07:01:51.538Z,22.31
2017-11-29T07:02:51.541Z,22.27
2017-11-29T07:03:51.544Z,22.37
2017-11-29T07:04:51.547Z,22.37
2017-11-29T07:05:51.548Z,22.40
2017-11-29T07:06:51.551Z,22.30
2017-11-29T07:07:51.554Z,22.28
2017-11-29T07:08:51.556Z,22.36
2017-11-29T07:09:51.560Z,22.37
2017-11-29T07:10:51.561Z,22.30
2017-11-29T07:11:51.565Z,22.42
2017-11-29T07:12:51.567Z,22.39
2017-11-29T07:13:51.577Z,22.35
2017-11-29T07:14:51.581Z,22.39
2017-11-29T07:15:51.575Z,22.39
2017-11-29T07:16:51.578Z,22.40
2017-11-29T07:17:51.580Z,22.42
2017-11-29T07:18:51.582Z,22.35
2017-11-29T07:19:51.585Z,22.40
2017-11-29T07:20:51.590Z,22.43
2017-11-29T07:21:51.590Z,22.39
2017-11-29T07:22:51.593Z,22.39
2017-11-29T07:23:51.597Z,22.45
2017-11-29T07:24:51.598Z,22.42
2017-11-29T07:25:51.608Z,22.36
2017-11-29T07:26:51.608Z,22.43
2017-11-29T07:27:51.611Z,22.47
2017-11-29T07:28:51.610Z,22.35
2017-11-29T07:29:51.612Z,22.39
2017-11-29T07:30:51.612Z,22.46
2017-11-29T07:31:51.615Z,22.49
2017-11-29T07:32:51.620Z,22.46
2017-11-29T07:33:51.620Z,22.51
2017-11-29T07:34:51.625Z,22.49
2017-11-29T07:35:51.627Z,22.46
2017-11-29T07:36:51.631Z,22.51
2017-11-29T07:37:51.631Z,22.52
2017-11-29T07:38:51.634Z,22.45
2017-11-29T07:39:51.640Z,22.54
2017-11-29T07:40:51.640Z,22.49
2017-11-29T07:41:51.643Z,22.57
2017-11-29T07:42:51.650Z,22.55
2017-11-29T07:43:51.649Z,22.60
2017-11-29T07:44:51.647Z,22.57
2017-11-29T07:45:51.656Z,22.61
2017-11-29T07:46:51.657Z,22.65
2017-11-29T07:47:51.659Z,22.64
2017-11-29T07:48:51.661Z,22.60
2017-11-29T07:49:51.663Z,22.62
2017-11-29T07:50:51.672Z,22.62
2017-11-29T07:51:51.669Z,22.62
2017-11-29T07:52:51.673Z,22.62
2017-11-29T07:53:51.676Z,22.70
2017-11-29T07:54:51.678Z,22.68
2017-11-29T07:55:51.678Z,22.73
2017-11-29T07:56:51.683Z,22.75
2017-11-29T07:57:51.686Z,22.70
2017-11-29T07:58:51.687Z,22.70
2017-11-29T07:59:51.691Z,22.73
2017-11-29T08:00:51.694Z,22.73
2017-11-29T08:01:51.698Z,22.70
2017-11-29T08:02:51.700Z,22.76
2017-11-29T08:03:51.702Z,22.76
2017-11-29T08:04:51.706Z,22.79
2017-11-29T08:05:51.708Z,22.76
2017-11-29T08:06:51.712Z,22.79
2017-11-29T08:07:51.713Z,22.79
2017-11-29T08:08:51.717Z,22.80
2017-11-29T08:09:51.719Z,22.77
2017-11-29T08:10:51.721Z,22.90
2017-11-29T08:11:51.725Z,22.88
2017-11-29T08:12:51.727Z,22.85
2017-11-29T08:13:51.730Z,22.88
2017-11-29T08:14:51.733Z,22.88
2017-11-29T08:15:51.740Z,22.90
2017-11-29T08:16:51.738Z,22.92
2017-11-29T08:17:51.740Z,22.90
2017-11-29T08:18:51.744Z,22.94
2017-11-29T08:19:51.758Z,22.98
2017-11-29T08:20:51.751Z,22.88
2017-11-29T08:21:51.754Z,22.91
2017-11-29T08:22:51.754Z,22.95
2017-11-29T08:23:51.760Z,22.91
2017-11-29T08:24:51.762Z,22.97
2017-11-29T08:25:51.762Z,22.91
2017-11-29T08:26:51.768Z,22.97
2017-11-29T08:27:51.769Z,22.94
2017-11-29T08:28:51.774Z,22.90
2017-11-29T08:29:51.776Z,22.92
2017-11-29T08:30:51.781Z,22.92
2017-11-29T08:31:51.782Z,22.92
2017-11-29T08:32:51.787Z,22.92
2017-11-29T08:33:51.787Z,22.94
2017-11-29T08:34:51.790Z,22.95
2017-11-29T08:35:51.795Z,22.91
2017-11-29T08:36:51.797Z,22.90
2017-11-29T08:37:51.811Z,22.92
2017-11-29T08:38:51.802Z,22.94
2017-11-29T08:39:51.808Z,22.90
2017-11-29T08:40:51.818Z,22.86
2017-11-29T08:41:51.812Z,22.90
2017-11-29T08:42:51.814Z,22.86
2017-11-29T08:43:51.820Z,22.94
2017-11-29T08:44:51.822Z,22.90
2017-11-29T08:45:51.824Z,22.90
2017-11-29T08:46:51.826Z,22.88
2017-11-29T08:47:51.836Z,22.92
2017-11-29T08:48:51.835Z,22.90
2017-11-29T08:49:51.835Z,22.88
2017-11-29T08:50:51.839Z,22.88
2017-11-29T08:51:51.842Z,22.85
2017-11-29T08:52:51.847Z,22.86
2017-11-29T08:53:51.850Z,22.86
2017-11-29T08:54:51.853Z,22.90
2017-11-29T08:55:51.859Z,22.90
2017-11-29T08:56:51.868Z,22.85
2017-11-29T08:57:51.860Z,22.83
2017-11-29T08:58:51.864Z,22.76
2017-11-29T08:59:51.867Z,22.83
2017-11-29T09:00:51.870Z,22.88
2017-11-29T09:01:51.873Z,22.85
2017-11-29T09:02:51.878Z,22.88
2017-11-29T09:03:51.879Z,22.82
2017-11-29T09:04:51.887Z,22.80
2017-11-29T09:05:51.886Z,22.77
2017-11-29T09:06:51.895Z,22.86
2017-11-29T09:07:51.891Z,22.90
2017-11-29T09:08:51.906Z,22.88
2017-11-29T09:09:51.897Z,22.85
2017-11-29T09:10:51.902Z,22.80
2017-11-29T09:11:51.904Z,22.88
2017-11-29T09:12:51.907Z,22.91
2017-11-29T09:13:51.908Z,22.85
2017-11-29T09:14:51.914Z,22.88
2017-11-29T09:15:51.924Z,22.85
2017-11-29T09:16:51.922Z,22.85
2017-11-29T09:17:51.922Z,22.85
2017-11-29T09:18:51.930Z,22.86
2017-11-29T09:19:51.928Z,22.82
2017-11-29T09:20:51.931Z,22.83
2017-11-29T09:21:51.940Z,22.90
2017-11-29T09:22:51.943Z,22.90
2017-11-29T16:24:21.914Z,23.27
2017-11-29T16:25:21.913Z,23.13
2017-11-29T16:26:21.918Z,23.04
2017-11-29T16:27:21.924Z,23.04
2017-11-29T16:28:21.918Z,23.07
2017-11-29T16:29:21.918Z,23.07
2017-11-29T16:30:21.921Z,23.04
2017-11-29T16:31:21.922Z,23.09
2017-11-29T16:32:21.923Z,23.12
2017-11-29T16:33:21.925Z,23.04
2017-11-29T16:34:21.927Z,23.16
2017-11-29T16:35:21.932Z,23.05
2017-11-29T16:36:21.932Z,23.07
2017-11-29T16:37:21.933Z,23.12
2017-11-29T16:38:21.936Z,23.07
2017-11-29T16:39:21.938Z,23.10
2017-11-29T16:40:21.940Z,23.10
2017-11-29T16:41:21.943Z,23.10
2017-11-29T16:42:21.944Z,23.05
2017-11-29T16:43:21.949Z,23.07
2017-11-29T16:44:21.950Z,23.12
2017-11-29T16:45:21.952Z,23.04
2017-11-29T16:46:21.953Z,23.09
2017-11-29T16:47:21.956Z,23.17
2017-11-29T16:48:21.961Z,23.22
2017-11-29T16:49:21.971Z,23.19
2017-11-29T16:50:21.966Z,23.20
2017-11-29T16:51:21.968Z,23.16
2017-11-29T16:52:21.970Z,23.05
2017-11-29T16:53:21.976Z,23.10
2017-11-29T16:54:21.978Z,23.17
2017-11-29T16:55:21.978Z,23.02
2017-11-29T16:56:21.978Z,23.05
2017-11-29T16:57:21.989Z,23.15
2017-11-29T16:58:21.987Z,23.07
2017-11-29T16:59:21.995Z,23.10
2017-11-29T17:00:21.996Z,23.09
2017-11-29T17:01:21.998Z,23.07
2017-11-29T17:02:21.998Z,23.02
2017-11-29T17:03:22.002Z,23.09
2017-11-29T17:04:22.001Z,23.07
2017-11-29T17:05:22.005Z,23.09
2017-11-29T17:06:22.011Z,23.07
2017-11-29T17:07:22.009Z,23.09
2017-11-29T17:08:22.011Z,23.04
2017-11-29T17:09:22.016Z,23.17
2017-11-29T17:10:22.018Z,23.19
2017-11-29T17:11:22.040Z,23.07
2017-11-29T17:12:22.022Z,23.19
2017-11-29T17:13:22.027Z,23.15
2017-11-29T17:14:22.029Z,23.19
2017-11-29T17:15:22.031Z,23.25
2017-11-29T17:16:22.030Z,23.10
2017-11-29T17:17:22.033Z,23.20
2017-11-29T17:18:22.039Z,23.19
2017-11-29T17:19:22.041Z,23.22
2017-11-29T17:20:22.068Z,23.17
2017-11-29T17:21:22.045Z,23.15
2017-11-29T17:22:22.048Z,23.17
2017-11-29T17:23:22.052Z,23.22
2017-11-29T17:24:22.059Z,23.13
2017-11-29T17:25:22.067Z,23.13
2017-11-29T17:26:22.059Z,23.15
2017-11-29T17:27:22.067Z,23.02
2017-11-29T17:28:22.072Z,23.22
2017-11-29T17:29:22.067Z,23.04
2017-11-29T17:30:22.073Z,23.12
2017-11-29T17:31:22.083Z,23.10
2017-11-29T17:32:22.074Z,23.10
2017-11-29T17:33:22.085Z,23.09
2017-11-29T17:34:22.087Z,23.07
2017-11-29T17:35:22.084Z,23.16
2017-11-29T17:36:22.090Z,23.05
2017-11-29T17:37:22.090Z,23.13
2017-11-29T17:38:22.089Z,23.12
2017-11-29T17:39:22.095Z,23.10
2017-11-29T17:40:22.096Z,23.05
2017-11-29T17:41:22.099Z,23.04
2017-11-29T17:42:22.114Z,23.04
2017-11-29T17:43:22.105Z,23.02
2017-11-29T17:44:22.106Z,23.02
2017-11-29T17:45:22.110Z,23.05
2017-11-29T17:46:22.112Z,23.16
2017-11-29T17:47:22.116Z,23.04
2017-11-29T17:48:22.114Z,23.02
2017-11-29T17:49:22.117Z,23.15
2017-11-29T17:50:22.125Z,23.07
2017-11-29T17:51:22.130Z,23.07
2017-11-29T17:52:22.128Z,23.09
2017-11-29T17:53:22.135Z,23.04
2017-11-29T17:54:22.133Z,23.04
2017-11-29T17:55:22.137Z,23.09
2017-11-29T17:56:22.138Z,23.07
2017-11-29T17:57:22.141Z,23.16
2017-11-29T17:58:22.145Z,23.22
2017-11-29T17:59:22.149Z,23.23
2017-11-29T18:00:22.149Z,23.27
2017-11-29T18:01:22.181Z,23.17
2017-11-29T18:02:22.163Z,23.25
2017-11-29T18:03:22.160Z,23.20
2017-11-29T18:04:22.163Z,23.23
2017-11-29T18:05:22.179Z,23.19
2017-11-29T18:06:22.168Z,23.22
2017-11-29T18:07:22.172Z,23.22
2017-11-29T18:08:22.174Z,23.23
2017-11-29T18:09:22.177Z,23.23
2017-11-29T18:10:22.182Z,23.20
2017-11-29T18:11:22.199Z,23.07
2017-11-29T18:12:22.185Z,23.10
2017-11-29T18:13:22.190Z,23.22
2017-11-29T18:14:22.198Z,23.09
2017-11-29T18:15:22.195Z,23.01
2017-11-29T18:16:22.279Z,23.07
2017-11-29T18:17:22.200Z,23.12
2017-11-29T18:18:22.203Z,23.13
2017-11-29T18:19:22.207Z,23.09
2017-11-29T18:20:22.215Z,22.97
2017-11-29T18:21:22.210Z,22.95
2017-11-29T18:22:22.217Z,22.92
2017-11-29T18:23:22.218Z,22.88
2017-11-29T18:24:22.219Z,22.85
2017-11-29T18:25:22.222Z,22.91
2017-11-29T18:26:22.224Z,22.95
2017-11-29T18:27:22.229Z,23.04
2017-11-29T18:28:22.230Z,23.04
2017-11-29T18:29:22.235Z,23.09
2017-11-29T18:30:22.237Z,23.12
2017-11-29T18:31:22.239Z,23.04
2017-11-29T18:32:22.248Z,23.09
2017-11-29T18:33:22.246Z,23.04
2017-11-29T18:34:22.250Z,23.07
2017-11-29T18:35:22.256Z,23.12
2017-11-29T18:36:22.256Z,23.09
2017-11-29T18:37:22.260Z,23.09
2017-11-29T18:38:22.266Z,23.09
2017-11-29T18:39:22.267Z,23.07
2017-11-29T18:40:22.303Z,23.16
2017-11-29T18:41:22.273Z,23.12
2017-11-29T18:42:22.277Z,23.07
2017-11-29T18:43:22.278Z,23.16
2017-11-29T18:44:22.282Z,23.13
2017-11-29T18:45:22.288Z,23.13
2017-11-29T18:46:22.290Z,23.16
2017-11-29T18:47:22.304Z,23.10
2017-11-29T18:48:22.297Z,23.12
2017-11-29T18:49:22.299Z,23.02
2017-11-29T18:50:22.309Z,23.10
2017-11-29T18:51:22.307Z,23.09
2017-11-29T18:52:22.311Z,23.09
2017-11-29T18:53:22.316Z,23.13
2017-11-29T18:54:22.316Z,23.10
2017-11-29T18:55:22.321Z,23.04
2017-11-29T18:56:22.324Z,23.17
2017-11-29T18:57:22.326Z,23.04
2017-11-29T18:58:22.331Z,23.05
2017-11-29T18:59:22.340Z,23.07
2017-11-29T19:00:22.338Z,23.02
2017-11-29T19:01:22.342Z,23.10
2017-11-29T19:02:22.346Z,23.05
2017-11-29T19:03:22.349Z,23.04
2017-11-29T19:04:22.352Z,23.04
2017-11-29T19:05:22.356Z,23.10
2017-11-29T19:06:22.359Z,23.07
2017-11-29T19:07:22.365Z,23.12
2017-11-29T19:08:22.365Z,23.02
2017-11-29T19:09:22.371Z,23.02
2017-11-29T19:10:22.374Z,23.09
2017-11-29T19:11:22.377Z,23.04
2017-11-29T19:12:22.381Z,23.02
2017-11-29T19:13:22.386Z,23.13
2017-11-29T19:14:22.389Z,23.07
2017-11-29T19:15:22.393Z,23.09
2017-11-29T19:16:22.395Z,23.07
2017-11-29T19:17:22.398Z,23.13
2017-11-29T19:18:22.401Z,23.02
2017-11-29T19:19:22.405Z,23.10
2017-11-29T19:20:22.409Z,23.05
2017-11-29T19:21:22.412Z,23.04
2017-11-29T19:22:22.415Z,23.01
2017-11-29T19:23:22.418Z,23.00
2017-11-29T19:24:22.426Z,23.01
2017-11-29T19:25:22.426Z,23.07
2017-11-29T19:26:22.429Z,23.02
2017-11-29T19:27:22.433Z,23.05
2017-11-29T19:28:22.438Z,23.02
2017-11-29T19:29:22.440Z,23.01
2017-11-29T19:30:22.448Z,22.98
2017-11-29T19:31:22.449Z,23.09
2017-11-29T19:32:22.449Z,23.04
2017-11-29T19:33:22.452Z,23.02
2017-11-29T19:34:22.457Z,23.05
2017-11-29T19:35:22.460Z,23.00
2017-11-29T19:36:22.462Z,23.04
2017-11-29T19:37:22.466Z,22.97
2017-11-29T19:38:22.475Z,22.98
2017-11-29T19:39:22.475Z,23.01
2017-11-29T19:40:22.476Z,23.01
2017-11-29T19:41:22.484Z,22.98
2017-11-29T19:42:22.486Z,23.01
2017-11-29T19:43:22.488Z,23.01
2017-11-29T19:44:22.503Z,23.04
2017-11-29T19:45:22.494Z,23.02
2017-11-29T19:46:22.499Z,23.02
2017-11-29T19:47:22.502Z,23.02
2017-11-29T19:48:22.504Z,23.01
2017-11-29T19:49:22.508Z,22.98
2017-11-29T19:50:22.512Z,23.05
2017-11-29T19:51:22.514Z,23.01
2017-11-29T19:52:22.518Z,23.01
2017-11-29T19:53:22.525Z,23.02